createdAt,value
2017-06-29T00:00:43.765Z,0
2017-06-29T00:01:29.473Z,0
2017-06-29T00:02:29.500Z,0
2017-06-29T00:03:29.531Z,0
2017-06-29T00:04:29.552Z,0
2017-06-29T00:05:29.623Z,0
2017-06-29T00:06:29.604Z,0
2017-06-29T00:07:29.632Z,0
2017-06-29T00:08:29.660Z,0
2017-06-29T00:09:29.680Z,0
2017-06-29T00:11:29.726Z,0
2017-06-29T00:12:29.758Z,0
2017-06-29T00:13:29.789Z,0
2017-06-29T00:14:44.429Z,0
2017-06-29T00:15:29.840Z,0
2017-06-29T00:16:29.857Z,0
2017-06-29T00:17:29.896Z,0
2017-06-29T00:18:29.910Z,0
2017-06-29T00:19:44.555Z,0
2017-06-29T00:20:29.962Z,0
2017-06-29T00:21:44.603Z,0
2017-06-29T00:22:30.016Z,0
2017-06-29T00:23:30.038Z,0
2017-06-29T00:25:44.709Z,0
2017-06-29T00:26:30.119Z,0
2017-06-29T00:27:29.844Z,0
2017-06-29T00:28:30.174Z,0
2017-06-29T00:29:30.196Z,0
2017-06-29T00:30:30.222Z,0
2017-06-29T00:31:30.249Z,0
2017-06-29T00:32:30.268Z,0
2017-06-29T00:34:30.329Z,0
2017-06-29T00:35:30.351Z,0
2017-06-29T00:36:30.379Z,0
2017-06-29T00:37:30.396Z,0
2017-06-29T00:38:45.042Z,0
2017-06-29T00:39:30.449Z,0
2017-06-29T00:41:30.498Z,0
2017-06-29T00:44:30.586Z,0
2017-06-29T00:45:45.220Z,0
2017-06-29T00:46:45.286Z,0
2017-06-29T00:47:30.653Z,0
2017-06-29T00:48:30.682Z,0
2017-06-29T00:49:30.416Z,0
2017-06-29T00:50:45.351Z,0
2017-06-29T00:51:45.377Z,0
2017-06-29T00:52:30.782Z,0
2017-06-29T00:53:30.509Z,0
2017-06-29T00:54:45.456Z,0
2017-06-29T00:55:30.858Z,0
2017-06-29T00:56:30.882Z,0
2017-06-29T00:57:45.533Z,0
2017-06-29T00:59:30.357Z,0
2017-06-29T01:00:45.603Z,0
2017-06-29T01:01:31.015Z,0
2017-06-29T01:02:45.654Z,0
2017-06-29T01:03:31.074Z,0
2017-06-29T01:04:31.090Z,0
2017-06-29T01:05:30.811Z,0
2017-06-29T01:06:31.138Z,0
2017-06-29T01:07:45.787Z,0
2017-06-29T01:08:31.198Z,0
2017-06-29T01:09:31.219Z,0
2017-06-29T01:10:31.240Z,0
2017-06-29T01:11:31.267Z,0
2017-06-29T01:12:31.293Z,0
2017-06-29T01:13:31.376Z,0
2017-06-29T01:14:31.347Z,0
2017-06-29T01:15:31.375Z,0
2017-06-29T01:16:31.399Z,0
2017-06-29T01:17:31.421Z,0
2017-06-29T01:18:45.764Z,0
2017-06-29T01:19:31.469Z,0
2017-06-29T01:20:31.500Z,0
2017-06-29T01:21:31.555Z,0
2017-06-29T01:22:31.554Z,0
2017-06-29T01:23:31.277Z,0
2017-06-29T01:24:31.603Z,0
2017-06-29T01:25:46.242Z,0
2017-06-29T01:26:31.654Z,0
2017-06-29T01:27:31.673Z,0
2017-06-29T01:28:31.762Z,0
2017-06-29T01:30:31.755Z,0
2017-06-29T01:31:31.782Z,0
2017-06-29T01:32:31.841Z,0
2017-06-29T01:33:31.837Z,0
2017-06-29T01:34:46.504Z,0
2017-06-29T01:35:31.576Z,0
2017-06-29T01:36:31.904Z,0
2017-06-29T01:37:31.632Z,0
2017-06-29T01:38:46.579Z,0
2017-06-29T01:39:31.985Z,0
2017-06-29T01:40:32.006Z,0
2017-06-29T01:41:32.036Z,0
2017-06-29T01:42:46.677Z,0
2017-06-29T01:43:32.085Z,0
2017-06-29T01:44:32.111Z,0
2017-06-29T01:45:46.757Z,0
2017-06-29T01:46:46.779Z,0
2017-06-29T01:47:32.193Z,0
2017-06-29T01:48:31.910Z,0
2017-06-29T01:49:46.857Z,0
2017-06-29T01:50:32.269Z,0
2017-06-29T01:51:32.288Z,0
2017-06-29T01:53:32.346Z,0
2017-06-29T01:54:47.034Z,0
2017-06-29T01:55:32.393Z,0
2017-06-29T01:56:32.414Z,0
2017-06-29T01:57:32.140Z,0
2017-06-29T01:58:47.089Z,0
2017-06-29T01:59:32.493Z,0
2017-06-29T02:02:46.885Z,4
2017-06-29T02:04:32.678Z,4
2017-06-29T02:05:32.341Z,0
2017-06-29T02:06:32.369Z,4
2017-06-29T02:07:32.698Z,4
2017-06-29T02:09:32.750Z,8
2017-06-29T02:10:32.770Z,4
2017-06-29T02:11:32.496Z,8
2017-06-29T02:12:32.821Z,8
2017-06-29T02:13:32.852Z,8
2017-06-29T02:16:32.925Z,12
2017-06-29T02:17:32.950Z,12
2017-06-29T02:18:32.982Z,12
2017-06-29T02:19:33.004Z,16
2017-06-29T02:20:32.453Z,20
2017-06-29T02:21:47.673Z,20
2017-06-29T02:22:32.780Z,20
2017-06-29T02:23:33.111Z,24
2017-06-29T02:24:33.128Z,28
2017-06-29T02:25:33.159Z,28
2017-06-29T02:26:47.799Z,32
2017-06-29T02:27:33.203Z,36
2017-06-29T02:28:33.230Z,40
2017-06-29T02:29:47.873Z,44
2017-06-29T02:30:33.286Z,48
2017-06-29T02:31:47.925Z,52
2017-06-29T02:32:33.335Z,56
2017-06-29T02:33:33.361Z,60
2017-06-29T02:34:33.383Z,64
2017-06-29T02:35:33.411Z,72
2017-06-29T02:37:48.076Z,84
2017-06-29T02:38:33.490Z,92
2017-06-29T02:39:33.557Z,100
2017-06-29T02:40:33.541Z,104
2017-06-29T02:41:33.567Z,112
2017-06-29T02:42:33.589Z,120
2017-06-29T02:43:33.611Z,132
2017-06-29T02:44:33.638Z,140
2017-06-29T02:45:33.663Z,152
2017-06-29T02:46:33.685Z,168
2017-06-29T02:48:33.750Z,192
2017-06-29T02:49:33.766Z,204
2017-06-29T02:51:33.813Z,236
2017-06-29T02:52:33.541Z,252
2017-06-29T02:53:48.479Z,276
2017-06-29T02:54:33.889Z,292
2017-06-29T02:55:33.914Z,316
2017-06-29T02:56:33.941Z,340
2017-06-29T02:57:48.587Z,368
2017-06-29T02:58:48.609Z,396
2017-06-29T02:59:34.019Z,416
2017-06-29T03:00:34.040Z,440
2017-06-29T03:01:48.685Z,476
2017-06-29T03:02:34.094Z,492
2017-06-29T03:03:34.123Z,520
2017-06-29T03:04:48.756Z,564
2017-06-29T03:05:48.787Z,604
2017-06-29T03:07:34.315Z,672
2017-06-29T03:08:34.254Z,704
2017-06-29T03:09:48.887Z,740
2017-06-29T03:10:34.297Z,764
2017-06-29T03:11:34.316Z,812
2017-06-29T03:12:34.348Z,860
2017-06-29T03:13:34.065Z,884
2017-06-29T03:14:34.402Z,872
2017-06-29T03:15:34.116Z,824
2017-06-29T03:16:34.147Z,848
2017-06-29T03:17:34.474Z,912
2017-06-29T03:18:34.506Z,1004
2017-06-29T03:19:34.524Z,1116
2017-06-29T03:21:34.575Z,1276
2017-06-29T03:23:34.626Z,1176
2017-06-29T03:24:49.264Z,944
2017-06-29T03:25:34.375Z,920
2017-06-29T03:26:34.700Z,1008
2017-06-29T03:27:34.727Z,1232
2017-06-29T03:28:49.371Z,1576
2017-06-29T03:29:34.785Z,1744
2017-06-29T03:30:34.802Z,1844
2017-06-29T03:31:34.828Z,1980
2017-06-29T03:32:49.517Z,2188
2017-06-29T03:33:34.883Z,2288
2017-06-29T03:34:34.912Z,2524
2017-06-29T03:36:34.950Z,2948
2017-06-29T03:37:34.982Z,2988
2017-06-29T03:38:35.012Z,2996
2017-06-29T03:39:35.032Z,3048
2017-06-29T03:40:35.061Z,2968
2017-06-29T03:41:35.076Z,2920
2017-06-29T03:42:35.107Z,2796
2017-06-29T03:43:35.132Z,2872
2017-06-29T03:44:35.156Z,3276
2017-06-29T03:45:35.177Z,3776
2017-06-29T03:46:35.211Z,4084
2017-06-29T03:48:35.259Z,3788
2017-06-29T03:49:49.900Z,3440
2017-06-29T03:50:35.343Z,3480
2017-06-29T03:51:35.336Z,3688
2017-06-29T03:52:35.057Z,3780
2017-06-29T03:53:35.386Z,3784
2017-06-29T03:54:50.027Z,3588
2017-06-29T03:55:35.437Z,3536
2017-06-29T03:56:50.130Z,3796
2017-06-29T03:57:35.486Z,3916
2017-06-29T03:58:35.512Z,4192
2017-06-29T03:59:50.162Z,4596
2017-06-29T04:00:35.663Z,4604
2017-06-29T04:01:35.590Z,4184
2017-06-29T04:02:35.615Z,3500
2017-06-29T04:03:50.260Z,3244
2017-06-29T04:04:50.282Z,2996
2017-06-29T04:05:35.697Z,2800
2017-06-29T04:06:50.334Z,2428
2017-06-29T04:07:35.743Z,2240
2017-06-29T04:08:35.765Z,2084
2017-06-29T04:09:50.413Z,2124
2017-06-29T04:12:50.488Z,1976
2017-06-29T04:13:35.896Z,2008
2017-06-29T04:14:35.928Z,2004
2017-06-29T04:15:35.948Z,1916
2017-06-29T04:16:35.981Z,1812
2017-06-29T04:17:36.001Z,1772
2017-06-29T04:18:36.026Z,1812
2017-06-29T04:19:36.051Z,1828
2017-06-29T04:20:36.078Z,1788
2017-06-29T04:21:36.102Z,1740
2017-06-29T04:22:35.825Z,1656
2017-06-29T04:23:36.157Z,1588
2017-06-29T04:24:36.177Z,1548
2017-06-29T04:25:50.825Z,1504
2017-06-29T04:26:36.233Z,1512
2017-06-29T04:27:36.262Z,1536
2017-06-29T04:28:50.900Z,1572
2017-06-29T04:29:36.006Z,1600
2017-06-29T04:30:36.337Z,1584
2017-06-29T04:31:36.364Z,1572
2017-06-29T04:32:36.395Z,1540
2017-06-29T04:33:36.413Z,1612
2017-06-29T04:34:50.750Z,1612
2017-06-29T04:36:36.482Z,1612
2017-06-29T04:37:36.512Z,1532
2017-06-29T04:38:36.535Z,1508
2017-06-29T04:39:51.183Z,1492
2017-06-29T04:42:36.643Z,1608
2017-06-29T04:43:36.668Z,1748
2017-06-29T04:44:51.357Z,1880
2017-06-29T04:45:36.718Z,1840
2017-06-29T04:46:36.743Z,1736
2017-06-29T04:47:36.767Z,1700
2017-06-29T04:48:36.793Z,1848
2017-06-29T04:49:51.485Z,2260
2017-06-29T04:50:36.846Z,2544
2017-06-29T04:51:36.870Z,2664
2017-06-29T04:52:36.904Z,2548
2017-06-29T04:53:51.539Z,2416
2017-06-29T04:54:51.564Z,2400
2017-06-29T04:55:36.973Z,2504
2017-06-29T04:57:36.737Z,2892
2017-06-29T04:58:36.749Z,2808
2017-06-29T04:59:51.693Z,2996
2017-06-29T05:00:37.205Z,3052
2017-06-29T05:01:37.128Z,3104
2017-06-29T05:02:37.153Z,3040
2017-06-29T05:03:37.176Z,3096
2017-06-29T05:04:37.209Z,3140
2017-06-29T05:05:37.228Z,3108
2017-06-29T05:06:37.254Z,2816
2017-06-29T05:07:37.283Z,2732
2017-06-29T05:09:37.338Z,2820
2017-06-29T05:10:51.978Z,3416
2017-06-29T05:11:37.086Z,4180
2017-06-29T05:12:37.107Z,4840
2017-06-29T05:13:51.758Z,5612
2017-06-29T05:14:37.466Z,6040
2017-06-29T05:15:37.490Z,7080
2017-06-29T05:16:37.539Z,9016
2017-06-29T05:17:37.551Z,8768
2017-06-29T05:18:37.565Z,8600
2017-06-29T05:19:37.591Z,7932
2017-06-29T05:20:37.620Z,8232
2017-06-29T05:21:52.261Z,7580
2017-06-29T05:23:52.311Z,7356
2017-06-29T05:24:37.722Z,7356
2017-06-29T05:25:37.747Z,6980
2017-06-29T05:26:37.779Z,6100
2017-06-29T05:27:37.802Z,5648
2017-06-29T05:28:37.828Z,6876
2017-06-29T05:29:37.556Z,11020
2017-06-29T05:30:38.260Z,24896
2017-06-29T05:31:52.523Z,20480
2017-06-29T05:32:37.936Z,21664
2017-06-29T05:33:37.957Z,24960
2017-06-29T05:34:37.986Z,33344
2017-06-29T05:35:38.016Z,40256
2017-06-29T05:36:38.043Z,48096
2017-06-29T05:37:38.063Z,53280
2017-06-29T05:38:38.091Z,54656
2017-06-29T05:39:38.116Z,56736
2017-06-29T05:40:38.151Z,53888
2017-06-29T05:41:38.202Z,49760
2017-06-29T05:42:38.257Z,48352
2017-06-29T05:43:38.241Z,18016
2017-06-29T05:44:52.880Z,10132
2017-06-29T05:45:38.292Z,8288
2017-06-29T05:46:38.021Z,6828
2017-06-29T05:47:52.667Z,6088
2017-06-29T05:48:38.385Z,5780
2017-06-29T05:49:52.728Z,4484
2017-06-29T05:50:38.138Z,4028
2017-06-29T05:51:38.165Z,4012
2017-06-29T05:52:38.193Z,4300
2017-06-29T05:53:38.228Z,4756
2017-06-29T05:54:38.557Z,4784
2017-06-29T05:55:38.281Z,4648
2017-06-29T05:56:38.613Z,4464
2017-06-29T05:57:38.643Z,4556
2017-06-29T05:58:38.671Z,4920
2017-06-29T05:59:38.698Z,5504
2017-06-29T06:00:38.671Z,6104
2017-06-29T06:02:38.481Z,7272
2017-06-29T06:03:53.425Z,8704
2017-06-29T06:04:38.533Z,9644
2017-06-29T06:05:38.865Z,11320
2017-06-29T06:06:38.693Z,11276
2017-06-29T06:07:38.920Z,13248
2017-06-29T06:08:52.958Z,15056
2017-06-29T06:09:38.978Z,22496
2017-06-29T06:10:39.004Z,25248
2017-06-29T06:11:39.036Z,52960
2017-06-29T06:12:39.058Z,54592
2017-06-29T06:13:53.758Z,25216
2017-06-29T06:14:39.119Z,36032
2017-06-29T06:15:39.143Z,57120
2017-06-29T06:16:39.176Z,54016
2017-06-29T06:17:39.304Z,29856
2017-06-29T06:18:39.231Z,36576
2017-06-29T06:19:53.877Z,52032
2017-06-29T06:20:39.377Z,62400
2017-06-29T06:21:39.013Z,25504
2017-06-29T06:22:38.769Z,29120
2017-06-29T06:23:39.415Z,45312
2017-06-29T06:24:39.457Z,63200
2017-06-29T06:25:39.432Z,70496
2017-06-29T06:26:54.082Z,17920
2017-06-29T06:28:39.525Z,10312
2017-06-29T06:29:54.225Z,10556
2017-06-29T06:30:39.607Z,11788
2017-06-29T06:31:39.622Z,15664
2017-06-29T06:32:39.649Z,9296
2017-06-29T06:33:39.673Z,8372
2017-06-29T06:34:54.327Z,9100
2017-06-29T06:35:39.735Z,12248
2017-06-29T06:36:39.798Z,12572
2017-06-29T06:37:39.796Z,10208
2017-06-29T06:38:39.822Z,12560
2017-06-29T06:39:39.867Z,75456
2017-06-29T06:40:39.885Z,13100
2017-06-29T06:41:39.911Z,9404
2017-06-29T06:42:54.560Z,8828
2017-06-29T06:43:54.588Z,7892
2017-06-29T06:44:40.002Z,8172
2017-06-29T06:45:39.874Z,7556
2017-06-29T06:47:40.090Z,10952
2017-06-29T06:48:40.129Z,9836
2017-06-29T06:49:40.202Z,10028
2017-06-29T06:50:39.873Z,10136
2017-06-29T06:51:40.518Z,9596
2017-06-29T06:52:40.352Z,9884
2017-06-29T06:53:40.274Z,9032
2017-06-29T06:54:40.290Z,7764
2017-06-29T06:55:40.369Z,7404
2017-06-29T06:56:40.351Z,7512
2017-06-29T06:57:40.080Z,7440
2017-06-29T06:58:55.027Z,7552
2017-06-29T06:59:39.837Z,7804
2017-06-29T07:00:40.161Z,8088
2017-06-29T07:01:40.545Z,8348
2017-06-29T07:02:55.194Z,8268
2017-06-29T07:03:40.550Z,8148
2017-06-29T07:04:40.637Z,7948
2017-06-29T07:05:40.645Z,7844
2017-06-29T07:06:55.253Z,7752
2017-06-29T07:07:40.719Z,7816
2017-06-29T07:08:40.396Z,7812
2017-06-29T07:09:40.418Z,7840
2017-06-29T07:10:40.752Z,7780
2017-06-29T07:11:40.776Z,7656
2017-06-29T07:12:40.826Z,7488
2017-06-29T07:13:40.887Z,7320
2017-06-29T07:14:40.866Z,6988
2017-06-29T07:15:40.896Z,6496
2017-06-29T07:16:40.921Z,6184
2017-06-29T07:17:41.105Z,6096
2017-06-29T07:18:40.371Z,6156
2017-06-29T07:19:41.010Z,6428
2017-06-29T07:20:41.140Z,6436
2017-06-29T07:21:41.063Z,6384
2017-06-29T07:22:55.404Z,6444
2017-06-29T07:23:41.168Z,6412
2017-06-29T07:24:41.148Z,6376
2017-06-29T07:25:41.175Z,6164
2017-06-29T07:26:40.898Z,6252
2017-06-29T07:27:41.234Z,6172
2017-06-29T07:28:41.261Z,6056
2017-06-29T07:29:41.288Z,6228
2017-06-29T07:30:56.085Z,5944
2017-06-29T07:31:41.340Z,5492
2017-06-29T07:32:41.373Z,4672
2017-06-29T07:33:41.106Z,4400
2017-06-29T07:35:56.074Z,4144
2017-06-29T07:36:41.531Z,3928
2017-06-29T07:37:41.512Z,3360
2017-06-29T07:38:56.155Z,2744
2017-06-29T07:39:41.568Z,2564
2017-06-29T07:40:41.353Z,2456
2017-06-29T07:41:41.622Z,2252
2017-06-29T07:43:41.732Z,2516
2017-06-29T07:44:41.706Z,2692
2017-06-29T07:45:41.731Z,2608
2017-06-29T07:46:41.760Z,2612
2017-06-29T07:47:56.404Z,2552
2017-06-29T07:48:56.436Z,2468
2017-06-29T07:49:41.841Z,2328
2017-06-29T07:50:56.490Z,2120
2017-06-29T07:51:41.602Z,2040
2017-06-29T07:52:41.981Z,1936
2017-06-29T07:53:42.039Z,1888
2017-06-29T07:54:56.599Z,1952
2017-06-29T07:55:42.012Z,2056
2017-06-29T07:56:42.036Z,2116
2017-06-29T07:57:41.759Z,2060
2017-06-29T07:58:42.091Z,2312
2017-06-29T07:59:56.785Z,3132
2017-06-29T08:00:42.147Z,3440
2017-06-29T08:01:42.225Z,3648
2017-06-29T08:02:41.946Z,3804
2017-06-29T08:03:56.841Z,4488
2017-06-29T08:04:42.262Z,4900
2017-06-29T08:05:42.287Z,5552
2017-06-29T08:06:42.363Z,6268
2017-06-29T08:07:42.339Z,6500
2017-06-29T08:09:57.111Z,6004
2017-06-29T08:10:42.116Z,5836
2017-06-29T08:11:42.461Z,5632
2017-06-29T08:12:42.221Z,5480
2017-06-29T08:13:42.204Z,5456
2017-06-29T08:14:42.530Z,5688
2017-06-29T08:15:42.050Z,6000
2017-06-29T08:16:42.278Z,6428
2017-06-29T08:17:42.305Z,7000
2017-06-29T08:18:42.633Z,7528
2017-06-29T08:19:56.976Z,7992
2017-06-29T08:20:42.389Z,8104
2017-06-29T08:22:57.368Z,7388
2017-06-29T08:23:42.775Z,7416
2017-06-29T08:24:42.806Z,7448
2017-06-29T08:25:42.981Z,7608
2017-06-29T08:26:42.854Z,7736
2017-06-29T08:27:42.885Z,7704
2017-06-29T08:28:42.610Z,7380
2017-06-29T08:29:42.942Z,6676
2017-06-29T08:30:42.974Z,5620
2017-06-29T08:31:57.613Z,4204
2017-06-29T08:32:57.643Z,3648
2017-06-29T08:33:43.054Z,3456
2017-06-29T08:34:42.777Z,3336
2017-06-29T08:35:43.106Z,3432
2017-06-29T08:36:43.133Z,3360
2017-06-29T08:37:43.161Z,3108
2017-06-29T08:38:43.535Z,2972
2017-06-29T08:40:42.944Z,2304
2017-06-29T08:41:58.039Z,2244
2017-06-29T08:42:43.301Z,2308
2017-06-29T08:43:43.029Z,2616
2017-06-29T08:44:43.153Z,2772
2017-06-29T08:45:43.383Z,2916
2017-06-29T08:46:43.408Z,2812
2017-06-29T08:47:43.486Z,2560
2017-06-29T08:48:43.164Z,2376
2017-06-29T08:49:43.502Z,2260
2017-06-29T08:50:58.157Z,2108
2017-06-29T08:51:43.767Z,2128
2017-06-29T08:52:43.587Z,2128
2017-06-29T08:53:43.005Z,2016
2017-06-29T08:54:58.050Z,1692
2017-06-29T08:55:43.059Z,1512
2017-06-29T08:56:43.693Z,1316
2017-06-29T08:58:12.958Z,1088
2017-06-29T08:58:43.759Z,1004
2017-06-29T08:59:43.486Z,876
2017-06-29T09:00:43.762Z,832
2017-06-29T09:01:43.540Z,780
2017-06-29T09:02:43.862Z,724
2017-06-29T09:03:43.430Z,796
2017-06-29T09:04:43.912Z,844
2017-06-29T09:05:43.943Z,852
2017-06-29T09:06:43.986Z,844
2017-06-29T09:07:44.062Z,860
2017-06-29T09:08:43.719Z,920
2017-06-29T09:09:44.039Z,900
2017-06-29T09:10:44.064Z,828
2017-06-29T09:11:58.710Z,768
2017-06-29T09:12:44.125Z,748
2017-06-29T09:14:13.390Z,712
2017-06-29T09:14:58.798Z,752
2017-06-29T09:15:43.900Z,812
2017-06-29T09:16:43.927Z,840
2017-06-29T09:17:44.006Z,816
2017-06-29T09:18:43.984Z,780
2017-06-29T09:19:44.017Z,676
2017-06-29T09:20:44.496Z,676
2017-06-29T09:21:44.121Z,732
2017-06-29T09:22:58.710Z,836
2017-06-29T09:23:44.498Z,860
2017-06-29T09:24:44.169Z,844
2017-06-29T09:25:44.199Z,800
2017-06-29T09:26:44.833Z,804
2017-06-29T09:28:43.659Z,716
2017-06-29T09:29:59.207Z,720
2017-06-29T09:30:44.676Z,696
2017-06-29T09:31:44.630Z,692
2017-06-29T09:32:44.656Z,624
2017-06-29T09:33:44.687Z,612
2017-06-29T09:34:44.712Z,632
2017-06-29T09:35:44.749Z,616
2017-06-29T09:36:44.764Z,624
2017-06-29T09:37:44.188Z,584
2017-06-29T09:38:44.816Z,512
2017-06-29T09:39:44.866Z,436
2017-06-29T09:40:44.868Z,472
2017-06-29T09:41:44.894Z,604
2017-06-29T09:43:44.743Z,792
2017-06-29T09:44:59.594Z,872
2017-06-29T09:45:45.015Z,944
2017-06-29T09:46:44.425Z,1088
2017-06-29T09:47:44.752Z,980
2017-06-29T09:48:44.777Z,736
2017-06-29T09:49:59.775Z,564
2017-06-29T09:50:44.863Z,444
2017-06-29T09:51:44.856Z,456
2017-06-29T09:52:45.432Z,644
2017-06-29T09:53:44.904Z,780
2017-06-29T09:54:45.242Z,704
2017-06-29T09:55:59.574Z,724
2017-06-29T09:57:45.006Z,984
2017-06-29T09:58:45.084Z,1048
2017-06-29T09:59:45.369Z,1152
2017-06-29T10:00:44.789Z,1260
2017-06-29T10:01:45.421Z,1320
2017-06-29T10:02:45.845Z,1332
2017-06-29T10:03:45.475Z,1272
2017-06-29T10:04:45.544Z,1108
2017-06-29T10:05:45.576Z,980
2017-06-29T10:07:00.163Z,804
2017-06-29T10:07:45.583Z,768
2017-06-29T10:09:00.214Z,864
2017-06-29T10:09:45.319Z,812
2017-06-29T10:10:45.649Z,684
2017-06-29T10:11:45.672Z,616
2017-06-29T10:12:45.703Z,680
2017-06-29T10:13:45.729Z,740
2017-06-29T10:14:45.747Z,812
2017-06-29T10:15:45.876Z,812
2017-06-29T10:17:00.419Z,804
2017-06-29T10:17:45.827Z,820
2017-06-29T10:18:45.950Z,844
2017-06-29T10:19:45.874Z,876
2017-06-29T10:20:45.904Z,904
2017-06-29T10:21:45.929Z,928
2017-06-29T10:22:45.959Z,972
2017-06-29T10:24:00.599Z,1000
2017-06-29T10:24:46.003Z,996
2017-06-29T10:26:00.648Z,960
2017-06-29T10:26:45.750Z,1000
2017-06-29T10:28:00.700Z,1036
2017-06-29T10:28:46.160Z,1040
2017-06-29T10:31:00.775Z,1068
2017-06-29T10:31:46.181Z,1184
2017-06-29T10:33:00.828Z,1300
2017-06-29T10:33:46.238Z,1272
2017-06-29T10:34:46.271Z,1304
2017-06-29T10:35:46.492Z,1396
2017-06-29T10:37:00.933Z,1608
2017-06-29T10:37:46.036Z,1724
2017-06-29T10:38:46.366Z,1880
2017-06-29T10:39:46.192Z,1944
2017-06-29T10:40:46.418Z,1788
2017-06-29T10:42:59.212Z,1396
2017-06-29T10:44:01.122Z,1280
2017-06-29T10:45:01.149Z,1640
2017-06-29T10:45:46.550Z,1848
2017-06-29T10:47:01.214Z,2028
2017-06-29T10:47:46.304Z,2008
2017-06-29T10:49:00.960Z,2360
2017-06-29T10:49:46.986Z,2624
2017-06-29T10:50:46.419Z,2740
2017-06-29T10:51:46.445Z,2824
2017-06-29T10:52:46.797Z,2948
2017-06-29T10:53:46.573Z,2992
2017-06-29T10:54:46.523Z,2980
2017-06-29T10:55:46.834Z,2720
2017-06-29T10:56:47.031Z,2612
2017-06-29T10:57:46.954Z,2316
2017-06-29T10:59:47.097Z,2220
2017-06-29T11:00:46.977Z,2284
2017-06-29T11:01:46.706Z,2308
2017-06-29T11:03:47.047Z,2828
2017-06-29T11:05:16.291Z,3052
2017-06-29T11:05:47.134Z,3464
2017-06-29T11:08:01.767Z,3216
2017-06-29T11:09:01.780Z,3148
2017-06-29T11:09:47.282Z,3112
2017-06-29T11:10:47.231Z,3668
2017-06-29T11:11:47.280Z,4756
2017-06-29T11:12:47.293Z,5416
2017-06-29T11:13:47.009Z,5432
2017-06-29T11:15:01.635Z,5312
2017-06-29T11:16:01.958Z,5320
2017-06-29T11:16:47.067Z,4988
2017-06-29T11:17:47.125Z,4568
2017-06-29T11:18:47.428Z,3988
2017-06-29T11:20:02.070Z,3532
2017-06-29T11:20:47.507Z,3356
2017-06-29T11:21:47.526Z,3212
2017-06-29T11:22:47.532Z,3088
2017-06-29T11:23:47.560Z,2992
2017-06-29T11:24:47.303Z,2992
2017-06-29T11:25:47.014Z,2988
2017-06-29T11:26:47.667Z,2844
2017-06-29T11:27:47.661Z,2536
2017-06-29T11:28:47.750Z,2540
2017-06-29T11:29:47.727Z,2608
2017-06-29T11:30:47.465Z,2396
2017-06-29T11:31:47.763Z,2300
2017-06-29T11:32:47.916Z,2156
2017-06-29T11:33:47.518Z,2404
2017-06-29T11:34:47.877Z,2628
2017-06-29T11:35:48.074Z,2760
2017-06-29T11:37:02.504Z,2460
2017-06-29T11:37:47.935Z,1844
2017-06-29T11:38:47.972Z,1764
2017-06-29T11:39:47.980Z,1856
2017-06-29T11:41:48.270Z,2280
2017-06-29T11:42:48.066Z,2704
2017-06-29T11:43:48.092Z,3096
2017-06-29T11:44:48.160Z,3312
2017-06-29T11:45:48.139Z,3244
2017-06-29T11:46:48.161Z,3236
2017-06-29T11:48:48.356Z,3212
2017-06-29T11:49:48.263Z,3420
2017-06-29T11:50:48.294Z,3428
2017-06-29T11:52:02.911Z,2984
2017-06-29T11:52:48.302Z,2732
2017-06-29T11:53:48.330Z,2668
2017-06-29T11:54:48.384Z,2692
2017-06-29T11:55:48.403Z,2440
2017-06-29T11:56:48.435Z,2424
2017-06-29T11:57:48.454Z,2656
2017-06-29T11:58:48.777Z,3056
2017-06-29T11:59:48.481Z,2940
2017-06-29T12:00:48.590Z,2676
2017-06-29T12:01:48.592Z,2844
2017-06-29T12:03:02.887Z,2744
2017-06-29T12:03:48.611Z,2664
2017-06-29T12:04:48.642Z,2964
2017-06-29T12:06:03.250Z,3332
2017-06-29T12:06:48.675Z,3596
2017-06-29T12:08:02.991Z,3892
2017-06-29T12:08:48.799Z,3948
2017-06-29T12:09:48.749Z,3884
2017-06-29T12:11:03.389Z,3392
2017-06-29T12:12:48.875Z,2836
2017-06-29T12:13:48.872Z,2572
2017-06-29T12:15:03.485Z,2160
2017-06-29T12:15:48.901Z,1724
2017-06-29T12:16:49.235Z,1828
2017-06-29T12:18:48.993Z,2088
2017-06-29T12:20:49.055Z,1880
2017-06-29T12:21:49.070Z,1808
2017-06-29T12:24:03.724Z,1700
2017-06-29T12:24:49.123Z,1704
2017-06-29T12:26:49.299Z,1620
2017-06-29T12:27:48.917Z,1652
2017-06-29T12:28:49.256Z,1548
2017-06-29T12:29:49.274Z,1568
2017-06-29T12:30:48.989Z,1564
2017-06-29T12:31:49.317Z,1596
2017-06-29T12:32:49.063Z,1652
2017-06-29T12:33:49.059Z,1744
2017-06-29T12:34:49.403Z,1972
2017-06-29T12:35:49.431Z,1964
2017-06-29T12:37:04.070Z,2024
2017-06-29T12:37:49.585Z,2220
2017-06-29T12:38:49.511Z,2288
2017-06-29T12:40:49.663Z,2312
2017-06-29T12:42:04.184Z,2312
2017-06-29T12:42:49.598Z,2408
2017-06-29T12:43:49.678Z,2340
2017-06-29T12:44:49.663Z,2456
2017-06-29T12:45:49.684Z,2640
2017-06-29T12:46:49.709Z,2476
2017-06-29T12:47:49.841Z,2428
2017-06-29T12:48:49.823Z,2276
2017-06-29T12:50:04.378Z,2104
2017-06-29T12:50:50.315Z,2196
2017-06-29T12:51:49.561Z,2412
2017-06-29T12:52:49.872Z,2556
2017-06-29T12:53:49.927Z,2472
2017-06-29T12:55:04.623Z,2452
2017-06-29T12:55:49.956Z,2432
2017-06-29T12:56:49.963Z,2400
2017-06-29T12:57:49.672Z,2336
2017-06-29T12:58:49.713Z,2208
2017-06-29T12:59:49.742Z,2156
2017-06-29T13:00:49.756Z,2288
2017-06-29T13:01:50.101Z,2668
2017-06-29T13:03:50.015Z,3176
2017-06-29T13:04:50.180Z,3104
2017-06-29T13:05:50.201Z,3492
2017-06-29T13:06:50.226Z,3548
2017-06-29T13:08:04.847Z,3644
2017-06-29T13:08:49.941Z,3780
2017-06-29T13:10:04.892Z,4020
2017-06-29T13:10:50.374Z,4108
2017-06-29T13:11:50.356Z,4360
2017-06-29T13:12:50.386Z,4524
2017-06-29T13:13:50.638Z,4480
2017-06-29T13:14:50.434Z,4496
2017-06-29T13:15:50.443Z,4892
2017-06-29T13:16:50.491Z,5364
2017-06-29T13:17:50.580Z,5736
2017-06-29T13:18:50.546Z,6252
2017-06-29T13:20:05.153Z,6788
2017-06-29T13:20:50.791Z,6880
2017-06-29T13:21:50.607Z,6740
2017-06-29T13:22:50.634Z,6532
2017-06-29T13:23:50.713Z,6500
2017-06-29T13:24:50.689Z,6688
2017-06-29T13:25:50.714Z,7004
2017-06-29T13:27:05.318Z,7220
2017-06-29T13:27:50.829Z,7272
2017-06-29T13:28:50.772Z,7224
2017-06-29T13:29:50.194Z,7320
2017-06-29T13:30:51.047Z,7644
2017-06-29T13:32:05.467Z,8244
2017-06-29T13:32:50.883Z,8644
2017-06-29T13:33:50.667Z,9072
2017-06-29T13:34:50.951Z,8844
2017-06-29T13:35:50.987Z,8448
2017-06-29T13:36:50.978Z,8172
2017-06-29T13:37:50.715Z,7976
2017-06-29T13:38:51.034Z,7944
2017-06-29T13:39:51.084Z,7916
2017-06-29T13:40:51.387Z,7388
2017-06-29T13:41:51.138Z,6816
2017-06-29T13:43:05.752Z,6648
2017-06-29T13:43:51.222Z,6508
2017-06-29T13:44:51.255Z,6472
2017-06-29T13:45:51.224Z,6492
2017-06-29T13:46:51.279Z,6188
2017-06-29T13:47:51.537Z,6116
2017-06-29T13:49:51.328Z,5932
2017-06-29T13:50:51.459Z,5820
2017-06-29T13:52:51.405Z,6184
2017-06-29T13:53:51.759Z,6508
2017-06-29T13:54:51.481Z,6724
2017-06-29T13:55:51.474Z,6700
2017-06-29T13:56:50.923Z,6688
2017-06-29T13:57:51.027Z,6316
2017-06-29T13:59:20.781Z,5584
2017-06-29T13:59:51.609Z,4944
2017-06-29T14:00:51.466Z,4684
2017-06-29T14:01:51.353Z,4228
2017-06-29T14:02:51.363Z,4572
2017-06-29T14:03:51.709Z,4304
2017-06-29T14:04:51.742Z,4944
2017-06-29T14:05:51.783Z,4684
2017-06-29T14:06:51.469Z,4716
2017-06-29T14:07:51.920Z,4584
2017-06-29T14:08:51.831Z,6108
2017-06-29T14:10:06.524Z,7288
2017-06-29T14:10:52.085Z,7992
2017-06-29T14:11:51.961Z,8040
2017-06-29T14:13:06.553Z,9000
2017-06-29T14:15:06.607Z,9268
2017-06-29T14:16:06.630Z,9664
2017-06-29T14:16:52.052Z,9168
2017-06-29T14:17:52.344Z,9612
2017-06-29T14:19:06.687Z,8564
2017-06-29T14:19:52.191Z,7992
2017-06-29T14:20:52.168Z,7796
2017-06-29T14:21:52.178Z,8428
2017-06-29T14:22:52.214Z,8592
2017-06-29T14:23:52.300Z,8000
2017-06-29T14:24:52.243Z,8540
2017-06-29T14:25:51.992Z,8300
2017-06-29T14:27:06.966Z,8688
2017-06-29T14:27:52.033Z,8384
2017-06-29T14:28:52.362Z,7652
2017-06-29T14:30:21.653Z,7692
2017-06-29T14:30:52.544Z,7984
2017-06-29T14:31:52.127Z,7980
2017-06-29T14:33:52.500Z,7896
2017-06-29T14:34:52.619Z,8380